createdAt,value
2022-12-12T00:01:58.331Z,1000.22
2022-12-12T00:04:31.424Z,1000.22
2022-12-12T00:07:04.345Z,1000.24
2022-12-12T00:09:37.450Z,1000.25
2022-12-12T00:12:10.359Z,1000.27
2022-12-12T00:14:43.471Z,1000.30
2022-12-12T00:17:16.419Z,1000.33
2022-12-12T00:19:49.425Z,1000.33
2022-12-12T00:22:22.435Z,1000.34
2022-12-12T00:24:55.441Z,1000.34
2022-12-12T00:27:34.286Z,1000.35
2022-12-12T00:30:01.404Z,1000.35
2022-12-12T00:32:34.508Z,1000.35
2022-12-12T00:35:07.510Z,1000.34
2022-12-12T00:37:40.421Z,1000.35
2022-12-12T00:40:13.524Z,1000.33
2022-12-12T00:42:46.408Z,1000.33
2022-12-12T00:45:19.389Z,1000.32
2022-12-12T00:47:52.460Z,1000.33
2022-12-12T00:50:25.423Z,1000.35
2022-12-12T00:52:58.532Z,1000.38
2022-12-12T00:55:31.525Z,1000.40
2022-12-12T00:58:04.563Z,1000.42
2022-12-12T01:00:37.304Z,1000.44
2022-12-12T01:03:10.511Z,1000.45
2022-12-12T01:05:43.469Z,1000.45
2022-12-12T01:08:16.575Z,1000.46
2022-12-12T01:10:49.487Z,1000.47
2022-12-12T01:13:22.570Z,1000.49
2022-12-12T01:15:55.622Z,1000.49
2022-12-12T01:18:28.581Z,1000.51
2022-12-12T01:21:01.531Z,1000.52
2022-12-12T01:23:34.556Z,1000.54
2022-12-12T01:26:07.536Z,1000.55
2022-12-12T01:28:40.582Z,1000.57
2022-12-12T01:31:13.704Z,1000.59
2022-12-12T01:33:46.704Z,1000.63
2022-12-12T01:36:19.435Z,1000.65
2022-12-12T01:38:52.520Z,1000.66
2022-12-12T01:41:25.545Z,1000.66
2022-12-12T01:43:58.598Z,1000.65
2022-12-12T01:46:31.621Z,1000.63
2022-12-12T01:49:04.368Z,1000.63
2022-12-12T01:51:37.506Z,1000.63
2022-12-12T01:54:10.512Z,1000.63
2022-12-12T01:56:43.632Z,1000.64
2022-12-12T01:59:16.569Z,1000.65
2022-12-12T02:01:49.676Z,1000.67
2022-12-12T02:04:22.571Z,1000.69
2022-12-12T02:06:55.531Z,1000.70
2022-12-12T02:09:28.617Z,1000.72
2022-12-12T02:12:01.548Z,1000.75
2022-12-12T02:14:34.265Z,1000.77
2022-12-12T02:17:07.633Z,1000.78
2022-12-12T02:19:40.547Z,1000.79
2022-12-12T02:22:13.602Z,1000.81
2022-12-12T02:24:46.583Z,1000.83
2022-12-12T02:27:19.534Z,1000.85
2022-12-12T02:29:52.618Z,1000.87
2022-12-12T02:32:25.657Z,1000.89
2022-12-12T02:34:58.669Z,1000.90
2022-12-12T02:37:31.583Z,1000.93
2022-12-12T02:40:04.599Z,1000.95
2022-12-12T02:42:37.642Z,1000.96
2022-12-12T02:45:10.907Z,1000.97
2022-12-12T02:47:43.706Z,1001.00
2022-12-12T02:50:16.721Z,1000.99
2022-12-12T02:52:49.575Z,1000.98
2022-12-12T02:55:22.772Z,1000.99
2022-12-12T02:57:55.684Z,1000.99
2022-12-12T03:00:28.448Z,1001.01
2022-12-12T03:03:01.588Z,1001.01
2022-12-12T03:05:34.656Z,1001.02
2022-12-12T03:08:07.567Z,1001.05
2022-12-12T03:10:40.668Z,1001.04
2022-12-12T03:13:13.640Z,1001.06
2022-12-12T03:15:46.732Z,1001.04
2022-12-12T03:18:19.792Z,1001.05
2022-12-12T03:20:52.710Z,1001.03
2022-12-12T03:23:28.705Z,1001.04
2022-12-12T03:26:01.713Z,1001.03
2022-12-12T03:28:34.708Z,1001.05
2022-12-12T03:31:07.767Z,1001.04
2022-12-12T03:33:40.817Z,1001.04
2022-12-12T03:36:13.730Z,1001.05
2022-12-12T03:38:46.797Z,1001.05
2022-12-12T03:41:19.928Z,1001.04
2022-12-12T03:43:53.803Z,1001.03
2022-12-12T03:46:26.769Z,1001.02
2022-12-12T03:49:02.510Z,1001.01
2022-12-12T03:51:35.591Z,1001.01
2022-12-12T03:54:08.672Z,1001.01
2022-12-12T03:56:41.797Z,1001.01
2022-12-12T03:59:14.752Z,1001.00
2022-12-12T04:01:47.714Z,1000.97
2022-12-12T04:04:20.867Z,1000.97
2022-12-12T04:06:53.785Z,1000.95
2022-12-12T04:09:26.766Z,1000.97
2022-12-12T04:11:59.767Z,1000.96
2022-12-12T04:14:32.824Z,1000.96
2022-12-12T04:17:05.625Z,1000.95
2022-12-12T04:19:38.830Z,1000.94
2022-12-12T04:22:16.712Z,1000.93
2022-12-12T04:24:44.809Z,1000.92
2022-12-12T04:27:17.785Z,1000.92
2022-12-12T04:29:50.880Z,1000.91
2022-12-12T04:32:23.814Z,1000.90
2022-12-12T04:34:56.871Z,1000.92
2022-12-12T04:37:29.617Z,1000.94
2022-12-12T04:40:02.623Z,1000.94
2022-12-12T04:42:35.545Z,1000.96
2022-12-12T04:45:08.527Z,1000.98
2022-12-12T04:47:41.879Z,1000.98
2022-12-12T04:50:14.832Z,1000.99
2022-12-12T04:52:47.684Z,1001.02
2022-12-12T04:55:20.614Z,1001.03
2022-12-12T04:57:53.663Z,1001.05
2022-12-12T05:00:26.807Z,1001.07
2022-12-12T05:02:59.793Z,1001.11
2022-12-12T05:05:32.698Z,1001.13
2022-12-12T05:08:05.683Z,1001.11
2022-12-12T05:10:38.688Z,1001.13
2022-12-12T05:13:11.553Z,1001.16
2022-12-12T05:15:45.150Z,1001.18
2022-12-12T05:18:17.562Z,1001.21
2022-12-12T05:20:50.618Z,1001.24
2022-12-12T05:23:23.846Z,1001.26
2022-12-12T05:25:56.939Z,1001.28
2022-12-12T05:28:29.849Z,1001.31
2022-12-12T05:31:02.952Z,1001.34
2022-12-12T05:33:35.880Z,1001.36
2022-12-12T05:36:08.879Z,1001.38
2022-12-12T05:38:41.847Z,1001.39
2022-12-12T05:41:14.898Z,1001.41
2022-12-12T05:43:47.884Z,1001.40
2022-12-12T05:46:21.115Z,1001.42
2022-12-12T05:48:53.902Z,1001.43
2022-12-12T05:51:27.005Z,1001.44
2022-12-12T05:53:59.619Z,1001.45
2022-12-12T05:56:32.987Z,1001.46
2022-12-12T05:59:05.708Z,1001.47
2022-12-12T06:01:38.789Z,1001.47
2022-12-12T06:04:11.737Z,1001.49
2022-12-12T06:06:45.118Z,1001.51
2022-12-12T06:09:17.945Z,1001.53
2022-12-12T06:11:50.891Z,1001.55
2022-12-12T06:14:23.811Z,1001.57
2022-12-12T06:16:56.933Z,1001.58
2022-12-12T06:19:29.829Z,1001.61
2022-12-12T06:22:02.846Z,1001.63
2022-12-12T06:24:35.722Z,1001.64
2022-12-12T06:27:08.768Z,1001.64
2022-12-12T06:29:41.923Z,1001.65
2022-12-12T06:32:14.919Z,1001.65
2022-12-12T06:34:47.996Z,1001.66
2022-12-12T06:37:21.045Z,1001.68
2022-12-12T06:39:53.970Z,1001.69
2022-12-12T06:42:26.950Z,1001.71
2022-12-12T06:44:59.946Z,1001.71
2022-12-12T06:47:33.010Z,1001.71
2022-12-12T06:50:06.050Z,1001.72
2022-12-12T06:52:39.129Z,1001.73
2022-12-12T06:55:12.326Z,1001.74
2022-12-12T06:57:45.079Z,1001.75
2022-12-12T07:00:18.026Z,1001.76
2022-12-12T07:02:51.011Z,1001.79
2022-12-12T07:05:24.085Z,1001.82
2022-12-12T07:07:57.167Z,1001.84
2022-12-12T07:10:30.091Z,1001.87
2022-12-12T07:13:03.029Z,1001.89
2022-12-12T07:15:36.186Z,1001.91
2022-12-12T07:18:09.073Z,1001.93
2022-12-12T07:20:41.757Z,1001.97
2022-12-12T07:23:15.125Z,1001.99
2022-12-12T07:25:48.062Z,1002.02
2022-12-12T07:28:21.235Z,1002.04
2022-12-12T07:30:55.077Z,1002.09
2022-12-12T07:33:39.496Z,1002.12
2022-12-12T07:36:01.138Z,1002.13
2022-12-12T07:38:34.108Z,1002.16
2022-12-12T07:41:07.119Z,1002.20
2022-12-12T07:43:43.686Z,1002.23
2022-12-12T07:46:12.980Z,1002.26
2022-12-12T07:48:46.093Z,1002.27
2022-12-12T07:51:19.165Z,1002.29
2022-12-12T07:53:52.111Z,1002.30
2022-12-12T07:56:25.181Z,1002.32
2022-12-12T07:58:58.173Z,1002.34
2022-12-12T08:01:31.076Z,1002.37
2022-12-12T08:04:04.160Z,1002.39
2022-12-12T08:06:37.084Z,1002.39
2022-12-12T08:09:10.208Z,1002.41
2022-12-12T08:11:46.276Z,1002.43
2022-12-12T08:14:16.115Z,1002.44
2022-12-12T08:16:48.881Z,1002.42
2022-12-12T08:19:22.130Z,1002.43
2022-12-12T08:21:55.232Z,1002.43
2022-12-12T08:24:28.173Z,1002.44
2022-12-12T08:27:01.118Z,1002.44
2022-12-12T08:29:34.175Z,1002.46
2022-12-12T08:32:07.232Z,1002.48
2022-12-12T08:34:40.179Z,1002.50
2022-12-12T08:37:13.131Z,1002.52
2022-12-12T08:39:52.783Z,1002.55
2022-12-12T08:42:22.244Z,1002.58
2022-12-12T08:44:55.259Z,1002.57
2022-12-12T08:47:28.218Z,1002.60
2022-12-12T08:50:01.261Z,1002.62
2022-12-12T08:52:34.231Z,1002.63
2022-12-12T08:55:07.288Z,1002.64
2022-12-12T08:57:40.199Z,1002.66
2022-12-12T09:00:13.289Z,1002.69
2022-12-12T09:02:46.318Z,1002.73
2022-12-12T09:05:19.277Z,1002.74
2022-12-12T09:07:52.249Z,1002.76
2022-12-12T09:10:25.314Z,1002.77
2022-12-12T09:12:58.225Z,1002.79
2022-12-12T09:15:31.084Z,1002.81
2022-12-12T09:18:04.187Z,1002.82
2022-12-12T09:20:36.936Z,1002.85
2022-12-12T09:23:10.322Z,1002.85
2022-12-12T09:25:43.353Z,1002.88
2022-12-12T09:28:15.975Z,1002.88
2022-12-12T09:30:49.345Z,1002.90
2022-12-12T09:33:22.237Z,1002.92
2022-12-12T09:35:58.160Z,1002.94
2022-12-12T09:38:31.375Z,1002.96
2022-12-12T09:41:04.268Z,1002.97
2022-12-12T09:43:37.330Z,1002.97
2022-12-12T09:46:10.335Z,1002.97
2022-12-12T09:48:43.342Z,1002.96
2022-12-12T09:51:16.351Z,1002.96
2022-12-12T09:53:49.277Z,1002.94
2022-12-12T09:56:22.469Z,1002.93
2022-12-12T09:58:57.133Z,1002.91
2022-12-12T10:01:28.394Z,1002.88
2022-12-12T10:04:01.370Z,1002.84
2022-12-12T10:06:38.292Z,1002.81
2022-12-12T10:09:06.997Z,1002.79
2022-12-12T10:11:40.308Z,1002.76
2022-12-12T10:14:13.328Z,1002.76
2022-12-12T10:16:46.376Z,1002.76
2022-12-12T10:19:19.320Z,1002.78
2022-12-12T10:21:52.294Z,1002.80
2022-12-12T10:24:25.098Z,1002.81
2022-12-12T10:26:58.377Z,1002.84
2022-12-12T10:29:32.190Z,1002.85
2022-12-12T10:32:04.470Z,1002.86
2022-12-12T10:34:37.370Z,1002.88
2022-12-12T10:37:10.355Z,1002.89
2022-12-12T10:39:44.368Z,1002.90
2022-12-12T10:42:16.398Z,1002.90
2022-12-12T10:44:49.436Z,1002.91
2022-12-12T10:47:22.328Z,1002.93
2022-12-12T10:49:55.439Z,1002.94
2022-12-12T10:52:28.373Z,1002.95
2022-12-12T10:55:01.559Z,1002.95
2022-12-12T10:57:35.465Z,1002.95
2022-12-12T11:00:08.377Z,1002.96
2022-12-12T11:02:41.673Z,1002.97
2022-12-12T11:05:14.729Z,1002.97
2022-12-12T11:07:47.545Z,1002.97
2022-12-12T11:10:20.392Z,1002.97
2022-12-12T11:12:53.518Z,1002.97
2022-12-12T11:15:26.472Z,1002.95
2022-12-12T11:18:04.365Z,1002.94
2022-12-12T11:20:32.375Z,1002.93
2022-12-12T11:23:05.317Z,1002.93
2022-12-12T11:25:38.544Z,1002.91
2022-12-12T11:28:11.529Z,1002.91
2022-12-12T11:30:44.315Z,1002.93
2022-12-12T11:33:17.430Z,1002.94
2022-12-12T11:35:50.339Z,1002.94
2022-12-12T11:38:23.485Z,1002.95
2022-12-12T11:40:56.235Z,1002.95
2022-12-12T11:43:29.569Z,1002.93
2022-12-12T11:46:02.498Z,1002.93
2022-12-12T11:48:35.535Z,1002.91
2022-12-12T11:51:08.497Z,1002.90
2022-12-12T11:53:41.575Z,1002.88
2022-12-12T11:56:14.464Z,1002.88
2022-12-12T11:58:47.574Z,1002.87
2022-12-12T12:01:20.538Z,1002.86
2022-12-12T12:03:53.551Z,1002.86
2022-12-12T12:06:26.813Z,1002.85
2022-12-12T12:09:00.487Z,1002.84
2022-12-12T12:11:33.574Z,1002.83
2022-12-12T12:14:06.576Z,1002.83
2022-12-12T12:16:39.485Z,1002.81
2022-12-12T12:19:12.742Z,1002.80
2022-12-12T12:21:46.543Z,1002.78
2022-12-12T12:24:19.615Z,1002.77
2022-12-12T12:26:55.443Z,1002.75
2022-12-12T12:29:28.353Z,1002.73
2022-12-12T12:32:01.638Z,1002.71
2022-12-12T12:34:34.640Z,1002.70
2022-12-12T12:37:07.528Z,1002.68
2022-12-12T12:39:40.600Z,1002.67
2022-12-12T12:42:13.508Z,1002.65
2022-12-12T12:44:46.563Z,1002.65
2022-12-12T12:47:19.602Z,1002.64
2022-12-12T12:49:52.394Z,1002.62
2022-12-12T12:52:25.499Z,1002.62
2022-12-12T12:54:58.267Z,1002.60
2022-12-12T12:57:31.281Z,1002.59
2022-12-12T13:00:04.512Z,1002.59
2022-12-12T13:02:37.415Z,1002.58
2022-12-12T13:05:10.277Z,1002.55
2022-12-12T13:07:43.440Z,1002.54
2022-12-12T13:10:16.973Z,1002.52
2022-12-12T13:12:49.385Z,1002.49
2022-12-12T13:15:22.597Z,1002.49
2022-12-12T13:17:55.453Z,1002.47
2022-12-12T13:20:28.314Z,1002.47
2022-12-12T13:23:01.489Z,1002.47
2022-12-12T13:25:34.332Z,1002.47
2022-12-12T13:28:07.482Z,1002.46
2022-12-12T13:30:40.434Z,1002.44
2022-12-12T13:33:13.641Z,1002.43
2022-12-12T13:35:46.500Z,1002.41
2022-12-12T13:38:19.616Z,1002.40
2022-12-12T13:40:52.722Z,1002.39
2022-12-12T13:43:25.724Z,1002.38
2022-12-12T13:45:58.694Z,1002.38
2022-12-12T13:48:31.598Z,1002.36
2022-12-12T13:51:04.734Z,1002.36
2022-12-12T13:53:37.470Z,1002.37
2022-12-12T13:56:10.674Z,1002.37
2022-12-12T13:58:43.738Z,1002.37
2022-12-12T14:01:16.728Z,1002.36
2022-12-12T14:03:49.735Z,1002.36
2022-12-12T14:06:22.445Z,1002.35
2022-12-12T14:08:55.763Z,1002.34
2022-12-12T14:11:28.739Z,1002.33
2022-12-12T14:14:01.755Z,1002.33
2022-12-12T14:16:34.806Z,1002.30
2022-12-12T14:19:07.695Z,1002.29
2022-12-12T14:21:40.656Z,1002.27
2022-12-12T14:24:13.671Z,1002.25
2022-12-12T14:26:46.720Z,1002.24
2022-12-12T14:29:19.736Z,1002.23
2022-12-12T14:31:52.877Z,1002.25
2022-12-12T14:34:25.579Z,1002.25
2022-12-12T14:36:58.496Z,1002.26
2022-12-12T14:39:31.494Z,1002.26
2022-12-12T14:42:04.637Z,1002.24
2022-12-12T14:44:39.081Z,1002.22
2022-12-12T14:47:10.445Z,1002.21
2022-12-12T14:49:43.596Z,1002.21
2022-12-12T14:52:16.710Z,1002.21
2022-12-12T14:54:49.718Z,1002.21
2022-12-12T14:57:22.633Z,1002.21
2022-12-12T14:59:55.617Z,1002.21
2022-12-12T15:02:28.614Z,1002.22
2022-12-12T15:05:05.055Z,1002.24
2022-12-12T15:07:34.762Z,1002.27
2022-12-12T15:10:10.988Z,1002.27
2022-12-12T15:12:40.829Z,1002.28
2022-12-12T15:15:13.755Z,1002.29
2022-12-12T15:17:49.008Z,1002.32
2022-12-12T15:20:21.707Z,1002.34
2022-12-12T15:22:54.774Z,1002.37
2022-12-12T15:25:27.819Z,1002.37
2022-12-12T15:28:00.534Z,1002.36
2022-12-12T15:30:33.601Z,1002.36
2022-12-12T15:33:06.843Z,1002.35
2022-12-12T15:35:39.804Z,1002.35
2022-12-12T15:38:12.557Z,1002.34
2022-12-12T15:40:45.852Z,1002.35
2022-12-12T15:43:18.649Z,1002.32
2022-12-12T15:45:51.684Z,1002.30
2022-12-12T15:48:24.941Z,1002.29
2022-12-12T15:50:57.841Z,1002.27
2022-12-12T15:53:30.806Z,1002.26
2022-12-12T15:56:03.753Z,1002.27
2022-12-12T15:58:36.885Z,1002.26
2022-12-12T16:01:20.057Z,1002.25
2022-12-12T16:03:42.721Z,1002.22
2022-12-12T16:06:15.590Z,1002.20
2022-12-12T16:08:54.466Z,1002.18
2022-12-12T16:11:27.555Z,1002.16
2022-12-12T16:14:00.716Z,1002.15
2022-12-12T16:16:33.928Z,1002.16
2022-12-12T16:19:06.966Z,1002.18
2022-12-12T16:21:39.665Z,1002.22
2022-12-12T16:24:12.910Z,1002.24
2022-12-12T16:26:45.964Z,1002.27
2022-12-12T16:29:19.007Z,1002.30
2022-12-12T16:31:51.918Z,1002.33
2022-12-12T16:34:24.903Z,1002.34
2022-12-12T16:36:57.654Z,1002.37
2022-12-12T16:39:30.661Z,1002.37
2022-12-12T16:42:03.925Z,1002.40
2022-12-12T16:44:36.811Z,1002.43
2022-12-12T16:47:09.760Z,1002.47
2022-12-12T16:49:43.018Z,1002.49
2022-12-12T16:52:15.623Z,1002.50
2022-12-12T16:54:53.102Z,1002.49
2022-12-12T16:57:21.839Z,1002.51
2022-12-12T16:59:55.042Z,1002.53
2022-12-12T17:02:27.625Z,1002.56
2022-12-12T17:05:00.663Z,1002.56
2022-12-12T17:07:33.649Z,1002.55
2022-12-12T17:10:06.639Z,1002.55
2022-12-12T17:12:39.885Z,1002.54
2022-12-12T17:15:12.848Z,1002.53
2022-12-12T17:17:45.671Z,1002.53
2022-12-12T17:20:18.980Z,1002.54
2022-12-12T17:22:52.041Z,1002.55
2022-12-12T17:25:24.961Z,1002.56
2022-12-12T17:27:58.073Z,1002.55
2022-12-12T17:30:31.044Z,1002.54
2022-12-12T17:35:41.806Z,1002.54
2022-12-12T17:38:16.517Z,1002.52
2022-12-12T17:40:47.722Z,1002.51
2022-12-12T17:43:20.768Z,1002.49
2022-12-12T17:45:53.817Z,1002.48
2022-12-12T17:48:26.734Z,1002.50
2022-12-12T17:50:59.765Z,1002.49
2022-12-12T17:53:32.869Z,1002.49
2022-12-12T17:56:07.978Z,1002.50
2022-12-12T17:58:38.722Z,1002.50
2022-12-12T18:01:11.960Z,1002.51
2022-12-12T18:03:44.734Z,1002.51
2022-12-12T18:06:17.878Z,1002.52
2022-12-12T18:08:51.050Z,1002.53
2022-12-12T18:11:23.770Z,1002.53
2022-12-12T18:13:56.900Z,1002.53
2022-12-12T18:16:29.795Z,1002.51
2022-12-12T18:19:02.775Z,1002.51
2022-12-12T18:21:59.582Z,1002.51
2022-12-12T18:24:09.026Z,1002.51
2022-12-12T18:26:41.792Z,1002.50
2022-12-12T18:29:15.133Z,1002.50
2022-12-12T18:31:47.905Z,1002.50
2022-12-12T18:34:20.765Z,1002.50
2022-12-12T18:36:54.571Z,1002.50
2022-12-12T18:39:27.906Z,1002.49
2022-12-12T18:42:01.111Z,1002.48
2022-12-12T18:44:34.062Z,1002.47
2022-12-12T18:47:06.947Z,1002.47
2022-12-12T18:49:39.831Z,1002.45
2022-12-12T18:52:12.837Z,1002.44
2022-12-12T18:54:45.810Z,1002.45
2022-12-12T18:57:18.974Z,1002.44
2022-12-12T18:59:51.843Z,1002.45
2022-12-12T19:02:24.996Z,1002.46
2022-12-12T19:04:57.848Z,1002.47
2022-12-12T19:07:30.859Z,1002.48
2022-12-12T19:10:04.206Z,1002.48
2022-12-12T19:12:37.311Z,1002.47
2022-12-12T19:15:18.430Z,1002.48
2022-12-12T19:17:44.007Z,1002.50
2022-12-12T19:20:17.138Z,1002.52
2022-12-12T19:22:49.945Z,1002.54
2022-12-12T19:25:23.282Z,1002.56
2022-12-12T19:27:55.860Z,1002.58
2022-12-12T19:30:28.982Z,1002.58
2022-12-12T19:33:02.066Z,1002.58
2022-12-12T19:35:34.952Z,1002.56
2022-12-12T19:38:07.907Z,1002.55
2022-12-12T19:40:40.913Z,1002.54
2022-12-12T19:43:14.062Z,1002.54
2022-12-12T19:45:47.234Z,1002.54
2022-12-12T19:48:19.977Z,1002.53
2022-12-12T19:50:52.913Z,1002.51
2022-12-12T19:53:26.232Z,1002.50
2022-12-12T19:55:58.910Z,1002.50
2022-12-12T19:58:35.156Z,1002.50
2022-12-12T20:01:08.066Z,1002.50
2022-12-12T20:03:40.947Z,1002.50
2022-12-12T20:06:14.216Z,1002.51
2022-12-12T20:08:46.999Z,1002.54
2022-12-12T20:11:19.998Z,1002.55
2022-12-12T20:13:53.089Z,1002.56
2022-12-12T20:16:26.107Z,1002.57
2022-12-12T20:18:59.296Z,1002.59
2022-12-12T20:24:04.978Z,1002.57
2022-12-12T20:26:38.395Z,1002.57
2022-12-12T20:29:10.960Z,1002.58
2022-12-12T20:31:44.402Z,1002.59
2022-12-12T20:34:17.390Z,1002.61
2022-12-12T20:36:50.515Z,1002.61
2022-12-12T20:39:23.297Z,1002.61
2022-12-12T20:41:56.329Z,1002.60
2022-12-12T20:44:29.343Z,1002.60
2022-12-12T20:47:02.155Z,1002.60
2022-12-12T20:49:35.367Z,1002.62
2022-12-12T20:52:08.374Z,1002.62
2022-12-12T20:54:41.081Z,1002.59
2022-12-12T20:57:14.001Z,1002.57
2022-12-12T20:59:47.121Z,1002.56
2022-12-12T21:02:20.397Z,1002.55
2022-12-12T21:04:53.102Z,1002.52
2022-12-12T21:07:26.206Z,1002.47
2022-12-12T21:09:59.275Z,1002.44
2022-12-12T21:12:32.287Z,1002.40
2022-12-12T21:15:05.394Z,1002.38
2022-12-12T21:17:38.330Z,1002.36
2022-12-12T21:20:11.358Z,1002.35
2022-12-12T21:22:44.112Z,1002.36
2022-12-12T21:25:17.072Z,1002.34
2022-12-12T21:27:50.073Z,1002.33
2022-12-12T21:30:23.379Z,1002.33
2022-12-12T21:32:56.366Z,1002.33
2022-12-12T21:35:29.242Z,1002.33
2022-12-12T21:38:02.060Z,1002.31
2022-12-12T21:40:35.245Z,1002.31
2022-12-12T21:43:08.243Z,1002.28
2022-12-12T21:45:41.062Z,1002.28
2022-12-12T21:48:14.105Z,1002.28
2022-12-12T21:50:47.303Z,1002.27
2022-12-12T21:53:20.359Z,1002.27
2022-12-12T21:55:53.243Z,1002.28
2022-12-12T21:58:26.257Z,1002.28
2022-12-12T22:00:59.486Z,1002.27
2022-12-12T22:03:32.371Z,1002.26
2022-12-12T22:06:05.363Z,1002.26
2022-12-12T22:08:38.407Z,1002.25
2022-12-12T22:11:11.406Z,1002.25
2022-12-12T22:13:44.580Z,1002.25
2022-12-12T22:16:18.380Z,1002.25
2022-12-12T22:18:51.392Z,1002.23
2022-12-12T22:21:24.409Z,1002.22
2022-12-12T22:23:57.431Z,1002.20
2022-12-12T22:26:30.563Z,1002.18
2022-12-12T22:29:03.510Z,1002.19
2022-12-12T22:31:36.510Z,1002.19
2022-12-12T22:34:09.552Z,1002.18
2022-12-12T22:36:42.443Z,1002.18
2022-12-12T22:39:15.484Z,1002.18
2022-12-12T22:41:48.514Z,1002.18
2022-12-12T22:44:21.561Z,1002.17
2022-12-12T22:46:54.536Z,1002.16
2022-12-12T22:49:27.561Z,1002.15
2022-12-12T22:52:00.456Z,1002.12
2022-12-12T22:54:33.539Z,1002.12
2022-12-12T22:57:06.680Z,1002.11
2022-12-12T22:59:39.573Z,1002.10
2022-12-12T23:02:12.496Z,1002.10
2022-12-12T23:04:45.283Z,1002.07
2022-12-12T23:07:18.471Z,1002.07
2022-12-12T23:09:51.461Z,1002.05
2022-12-12T23:12:24.549Z,1002.02
2022-12-12T23:14:57.456Z,1002.03
2022-12-12T23:17:30.597Z,1002.05
2022-12-12T23:20:03.514Z,1002.04
2022-12-12T23:22:36.596Z,1002.02
2022-12-12T23:25:09.410Z,1002.01
2022-12-12T23:27:42.682Z,1002.00
2022-12-12T23:30:16.428Z,1001.98
2022-12-12T23:32:49.625Z,1001.97
2022-12-12T23:35:22.587Z,1001.98
2022-12-12T23:37:55.603Z,1002.00
2022-12-12T23:40:28.589Z,1001.99
2022-12-12T23:43:01.580Z,1001.98
2022-12-12T23:45:34.641Z,1001.97
2022-12-12T23:48:07.555Z,1001.94
2022-12-12T23:50:40.645Z,1001.92
2022-12-12T23:53:13.550Z,1001.91
2022-12-12T23:55:46.783Z,1001.89
2022-12-12T23:58:20.616Z,1001.87
